sensor_id;sensor_type;location;lat;lon;timestamp;temperature;humidity
36292;DHT22;22327;51.208;6.418;2023-03-05T00:01:10;9.00;92.30
36292;DHT22;22327;51.208;6.418;2023-03-05T00:03:36;9.10;92.20
36292;DHT22;22327;51.208;6.418;2023-03-05T00:06:02;9.10;92.10
36292;DHT22;22327;51.208;6.418;2023-03-05T00:08:29;9.10;92.00
36292;DHT22;22327;51.208;6.418;2023-03-05T00:10:56;9.10;91.90
36292;DHT22;22327;51.208;6.418;2023-03-05T00:13:22;9.00;91.90
36292;DHT22;22327;51.208;6.418;2023-03-05T00:15:47;9.00;92.00
36292;DHT22;22327;51.208;6.418;2023-03-05T00:18:13;9.00;92.00
36292;DHT22;22327;51.208;6.418;2023-03-05T00:20:38;8.90;91.90
36292;DHT22;22327;51.208;6.418;2023-03-05T00:23:04;8.90;92.10
36292;DHT22;22327;51.208;6.418;2023-03-05T00:25:29;8.90;92.10
36292;DHT22;22327;51.208;6.418;2023-03-05T00:27:55;9.00;92.10
36292;DHT22;22327;51.208;6.418;2023-03-05T00:30:20;9.00;92.10
36292;DHT22;22327;51.208;6.418;2023-03-05T00:32:46;9.00;92.10
36292;DHT22;22327;51.208;6.418;2023-03-05T00:35:11;9.00;91.90
36292;DHT22;22327;51.208;6.418;2023-03-05T00:37:37;9.00;91.90
36292;DHT22;22327;51.208;6.418;2023-03-05T00:40:04;9.00;92.30
36292;DHT22;22327;51.208;6.418;2023-03-05T00:42:29;9.00;92.00
36292;DHT22;22327;51.208;6.418;2023-03-05T00:44:55;9.00;92.00
36292;DHT22;22327;51.208;6.418;2023-03-05T00:47:20;9.00;91.90
36292;DHT22;22327;51.208;6.418;2023-03-05T00:49:46;9.00;91.80
36292;DHT22;22327;51.208;6.418;2023-03-05T00:52:11;9.00;91.90
36292;DHT22;22327;51.208;6.418;2023-03-05T00:54:37;9.10;91.80
36292;DHT22;22327;51.208;6.418;2023-03-05T00:57:02;9.00;91.80
36292;DHT22;22327;51.208;6.418;2023-03-05T00:59:30;9.10;91.80
36292;DHT22;22327;51.208;6.418;2023-03-05T01:01:55;9.10;91.70
36292;DHT22;22327;51.208;6.418;2023-03-05T01:04:21;9.00;91.70
36292;DHT22;22327;51.208;6.418;2023-03-05T01:06:46;9.00;91.60
36292;DHT22;22327;51.208;6.418;2023-03-05T01:09:12;9.00;91.50
36292;DHT22;22327;51.208;6.418;2023-03-05T01:11:37;9.00;91.60
36292;DHT22;22327;51.208;6.418;2023-03-05T01:14:03;9.00;91.70
36292;DHT22;22327;51.208;6.418;2023-03-05T01:16:28;9.00;91.80
36292;DHT22;22327;51.208;6.418;2023-03-05T01:18:54;8.90;91.80
36292;DHT22;22327;51.208;6.418;2023-03-05T01:21:19;8.90;92.00
36292;DHT22;22327;51.208;6.418;2023-03-05T01:23:46;8.90;92.20
36292;DHT22;22327;51.208;6.418;2023-03-05T01:26:12;8.80;92.10
36292;DHT22;22327;51.208;6.418;2023-03-05T01:28:37;8.80;92.00
36292;DHT22;22327;51.208;6.418;2023-03-05T01:31:07;8.70;91.90
36292;DHT22;22327;51.208;6.418;2023-03-05T01:33:33;8.60;92.00
36292;DHT22;22327;51.208;6.418;2023-03-05T01:35:58;8.60;92.30
36292;DHT22;22327;51.208;6.418;2023-03-05T01:38:25;8.60;92.50
36292;DHT22;22327;51.208;6.418;2023-03-05T01:40:51;8.60;92.50
36292;DHT22;22327;51.208;6.418;2023-03-05T01:43:27;8.50;92.70
36292;DHT22;22327;51.208;6.418;2023-03-05T01:48:47;8.50;92.80
36292;DHT22;22327;51.208;6.418;2023-03-05T01:51:15;8.50;92.80
36292;DHT22;22327;51.208;6.418;2023-03-05T01:53:41;8.50;92.90
36292;DHT22;22327;51.208;6.418;2023-03-05T01:56:08;8.50;92.80
36292;DHT22;22327;51.208;6.418;2023-03-05T01:58:33;8.40;92.90
36292;DHT22;22327;51.208;6.418;2023-03-05T02:00:59;8.50;93.00
36292;DHT22;22327;51.208;6.418;2023-03-05T02:03:26;8.40;93.10
36292;DHT22;22327;51.208;6.418;2023-03-05T02:05:51;8.50;93.20
36292;DHT22;22327;51.208;6.418;2023-03-05T02:08:20;8.50;93.20
36292;DHT22;22327;51.208;6.418;2023-03-05T02:10:51;8.60;93.20
36292;DHT22;22327;51.208;6.418;2023-03-05T02:13:20;8.60;93.10
36292;DHT22;22327;51.208;6.418;2023-03-05T02:15:47;8.60;93.10
36292;DHT22;22327;51.208;6.418;2023-03-05T02:18:15;8.60;93.00
36292;DHT22;22327;51.208;6.418;2023-03-05T02:20:46;8.60;93.00
36292;DHT22;22327;51.208;6.418;2023-03-05T02:23:12;8.70;92.90
36292;DHT22;22327;51.208;6.418;2023-03-05T02:25:37;8.60;92.80
36292;DHT22;22327;51.208;6.418;2023-03-05T02:28:34;8.60;92.70
36292;DHT22;22327;51.208;6.418;2023-03-05T02:31:07;8.50;92.60
36292;DHT22;22327;51.208;6.418;2023-03-05T02:33:33;8.40;92.70
36292;DHT22;22327;51.208;6.418;2023-03-05T02:35:58;8.40;92.90
36292;DHT22;22327;51.208;6.418;2023-03-05T02:38:24;8.40;92.80
36292;DHT22;22327;51.208;6.418;2023-03-05T02:40:49;8.40;92.80
36292;DHT22;22327;51.208;6.418;2023-03-05T02:43:15;8.40;92.80
36292;DHT22;22327;51.208;6.418;2023-03-05T02:45:41;8.40;92.80
36292;DHT22;22327;51.208;6.418;2023-03-05T02:48:06;8.50;92.80
36292;DHT22;22327;51.208;6.418;2023-03-05T02:50:32;8.50;92.70
36292;DHT22;22327;51.208;6.418;2023-03-05T02:52:58;8.50;92.60
36292;DHT22;22327;51.208;6.418;2023-03-05T02:55:24;8.50;92.50
36292;DHT22;22327;51.208;6.418;2023-03-05T02:57:50;8.50;92.50
36292;DHT22;22327;51.208;6.418;2023-03-05T03:00:16;8.50;92.50
36292;DHT22;22327;51.208;6.418;2023-03-05T03:02:42;8.60;92.60
36292;DHT22;22327;51.208;6.418;2023-03-05T03:05:08;8.50;92.60
36292;DHT22;22327;51.208;6.418;2023-03-05T03:07:33;8.60;92.70
36292;DHT22;22327;51.208;6.418;2023-03-05T03:10:01;8.50;92.70
36292;DHT22;22327;51.208;6.418;2023-03-05T03:12:26;8.50;92.80
36292;DHT22;22327;51.208;6.418;2023-03-05T03:14:52;8.50;92.70
36292;DHT22;22327;51.208;6.418;2023-03-05T03:17:18;8.50;92.90
36292;DHT22;22327;51.208;6.418;2023-03-05T03:19:44;8.40;93.00
36292;DHT22;22327;51.208;6.418;2023-03-05T03:22:11;8.40;93.20
36292;DHT22;22327;51.208;6.418;2023-03-05T03:24:37;8.30;93.40
36292;DHT22;22327;51.208;6.418;2023-03-05T03:27:03;8.20;93.60
36292;DHT22;22327;51.208;6.418;2023-03-05T03:29:29;8.30;93.60
36292;DHT22;22327;51.208;6.418;2023-03-05T03:31:55;8.30;93.70
36292;DHT22;22327;51.208;6.418;2023-03-05T03:34:21;8.30;93.70
36292;DHT22;22327;51.208;6.418;2023-03-05T03:36:48;8.40;93.70
36292;DHT22;22327;51.208;6.418;2023-03-05T03:39:15;8.30;93.70
36292;DHT22;22327;51.208;6.418;2023-03-05T03:41:42;8.30;93.60
36292;DHT22;22327;51.208;6.418;2023-03-05T03:44:08;8.30;93.80
36292;DHT22;22327;51.208;6.418;2023-03-05T03:46:36;8.30;93.80
36292;DHT22;22327;51.208;6.418;2023-03-05T03:49:02;8.40;93.80
36292;DHT22;22327;51.208;6.418;2023-03-05T03:51:28;8.40;93.80
36292;DHT22;22327;51.208;6.418;2023-03-05T03:53:53;8.40;93.80
36292;DHT22;22327;51.208;6.418;2023-03-05T03:56:19;8.40;93.80
36292;DHT22;22327;51.208;6.418;2023-03-05T03:58:44;8.40;93.60
36292;DHT22;22327;51.208;6.418;2023-03-05T04:01:10;8.40;93.60
36292;DHT22;22327;51.208;6.418;2023-03-05T04:03:35;8.40;93.70
36292;DHT22;22327;51.208;6.418;2023-03-05T04:06:01;8.40;93.70
36292;DHT22;22327;51.208;6.418;2023-03-05T04:08:27;8.40;93.80
36292;DHT22;22327;51.208;6.418;2023-03-05T04:10:52;8.40;93.80
36292;DHT22;22327;51.208;6.418;2023-03-05T04:13:18;8.40;93.80
36292;DHT22;22327;51.208;6.418;2023-03-05T04:15:43;8.40;93.80
36292;DHT22;22327;51.208;6.418;2023-03-05T04:18:10;8.40;93.80
36292;DHT22;22327;51.208;6.418;2023-03-05T04:20:35;8.40;93.80
36292;DHT22;22327;51.208;6.418;2023-03-05T04:23:01;8.30;93.70
36292;DHT22;22327;51.208;6.418;2023-03-05T04:25:27;8.30;93.70
36292;DHT22;22327;51.208;6.418;2023-03-05T04:27:52;8.30;93.80
36292;DHT22;22327;51.208;6.418;2023-03-05T04:30:18;8.40;93.80
36292;DHT22;22327;51.208;6.418;2023-03-05T04:32:43;8.40;93.80
36292;DHT22;22327;51.208;6.418;2023-03-05T04:35:09;8.30;93.90
36292;DHT22;22327;51.208;6.418;2023-03-05T04:37:34;8.20;94.00
36292;DHT22;22327;51.208;6.418;2023-03-05T04:40:00;8.10;94.30
36292;DHT22;22327;51.208;6.418;2023-03-05T04:42:26;8.00;94.40
36292;DHT22;22327;51.208;6.418;2023-03-05T04:44:51;8.00;94.60
36292;DHT22;22327;51.208;6.418;2023-03-05T04:47:18;7.90;94.70
36292;DHT22;22327;51.208;6.418;2023-03-05T04:49:44;7.90;94.70
36292;DHT22;22327;51.208;6.418;2023-03-05T04:52:13;7.90;94.70
36292;DHT22;22327;51.208;6.418;2023-03-05T04:54:39;7.90;94.70
36292;DHT22;22327;51.208;6.418;2023-03-05T04:57:06;7.90;94.80
36292;DHT22;22327;51.208;6.418;2023-03-05T04:59:32;8.00;94.80
36292;DHT22;22327;51.208;6.418;2023-03-05T05:01:57;8.00;94.80
36292;DHT22;22327;51.208;6.418;2023-03-05T05:04:23;8.00;94.70
36292;DHT22;22327;51.208;6.418;2023-03-05T05:06:49;8.00;94.60
36292;DHT22;22327;51.208;6.418;2023-03-05T05:09:14;8.00;94.40
36292;DHT22;22327;51.208;6.418;2023-03-05T05:11:40;8.10;94.50
36292;DHT22;22327;51.208;6.418;2023-03-05T05:14:06;8.10;94.40
36292;DHT22;22327;51.208;6.418;2023-03-05T05:16:32;8.10;94.20
36292;DHT22;22327;51.208;6.418;2023-03-05T05:18:57;8.00;94.30
36292;DHT22;22327;51.208;6.418;2023-03-05T05:21:23;8.00;94.40
36292;DHT22;22327;51.208;6.418;2023-03-05T05:23:48;8.00;94.30
36292;DHT22;22327;51.208;6.418;2023-03-05T05:26:14;8.00;94.20
36292;DHT22;22327;51.208;6.418;2023-03-05T05:28:41;8.00;94.30
36292;DHT22;22327;51.208;6.418;2023-03-05T05:31:12;8.00;94.10
36292;DHT22;22327;51.208;6.418;2023-03-05T05:33:38;8.00;94.30
36292;DHT22;22327;51.208;6.418;2023-03-05T05:36:05;8.00;94.20
36292;DHT22;22327;51.208;6.418;2023-03-05T05:38:31;7.90;94.10
36292;DHT22;22327;51.208;6.418;2023-03-05T05:41:02;8.00;94.30
36292;DHT22;22327;51.208;6.418;2023-03-05T05:43:28;8.00;94.20
36292;DHT22;22327;51.208;6.418;2023-03-05T05:45:53;8.00;94.20
36292;DHT22;22327;51.208;6.418;2023-03-05T05:48:18;8.00;94.10
36292;DHT22;22327;51.208;6.418;2023-03-05T05:50:44;8.00;94.20
36292;DHT22;22327;51.208;6.418;2023-03-05T05:53:09;8.00;94.20
36292;DHT22;22327;51.208;6.418;2023-03-05T05:55:39;8.00;94.30
36292;DHT22;22327;51.208;6.418;2023-03-05T05:58:05;8.00;94.30
36292;DHT22;22327;51.208;6.418;2023-03-05T06:00:30;8.00;94.40
36292;DHT22;22327;51.208;6.418;2023-03-05T06:02:55;7.90;94.40
36292;DHT22;22327;51.208;6.418;2023-03-05T06:05:21;7.90;94.50
36292;DHT22;22327;51.208;6.418;2023-03-05T06:07:47;7.90;95.00
36292;DHT22;22327;51.208;6.418;2023-03-05T06:10:12;7.80;94.80
36292;DHT22;22327;51.208;6.418;2023-03-05T06:12:38;7.80;95.00
36292;DHT22;22327;51.208;6.418;2023-03-05T06:15:04;7.80;95.00
36292;DHT22;22327;51.208;6.418;2023-03-05T06:17:29;7.80;95.00
36292;DHT22;22327;51.208;6.418;2023-03-05T06:19:55;7.80;95.20
36292;DHT22;22327;51.208;6.418;2023-03-05T06:22:20;7.80;95.20
36292;DHT22;22327;51.208;6.418;2023-03-05T06:24:46;7.80;95.20
36292;DHT22;22327;51.208;6.418;2023-03-05T06:27:11;7.80;95.20
36292;DHT22;22327;51.208;6.418;2023-03-05T06:29:37;7.80;95.20
36292;DHT22;22327;51.208;6.418;2023-03-05T06:32:03;7.70;95.30
36292;DHT22;22327;51.208;6.418;2023-03-05T06:34:28;7.70;95.50
36292;DHT22;22327;51.208;6.418;2023-03-05T06:36:54;7.80;95.50
36292;DHT22;22327;51.208;6.418;2023-03-05T06:39:19;7.80;95.50
36292;DHT22;22327;51.208;6.418;2023-03-05T06:41:45;7.80;95.40
36292;DHT22;22327;51.208;6.418;2023-03-05T06:44:10;7.90;95.50
36292;DHT22;22327;51.208;6.418;2023-03-05T06:46:37;7.90;95.40
36292;DHT22;22327;51.208;6.418;2023-03-05T06:49:04;7.90;95.50
36292;DHT22;22327;51.208;6.418;2023-03-05T06:51:33;7.80;95.50
36292;DHT22;22327;51.208;6.418;2023-03-05T06:54:10;7.80;95.70
36292;DHT22;22327;51.208;6.418;2023-03-05T06:56:37;7.80;95.70
36292;DHT22;22327;51.208;6.418;2023-03-05T06:59:04;7.80;95.80
36292;DHT22;22327;51.208;6.418;2023-03-05T07:01:30;7.80;96.00
36292;DHT22;22327;51.208;6.418;2023-03-05T07:03:55;7.80;96.10
36292;DHT22;22327;51.208;6.418;2023-03-05T07:06:25;7.80;96.20
36292;DHT22;22327;51.208;6.418;2023-03-05T07:08:54;7.80;96.20
36292;DHT22;22327;51.208;6.418;2023-03-05T07:11:20;7.80;96.30
36292;DHT22;22327;51.208;6.418;2023-03-05T07:13:47;7.90;96.30
36292;DHT22;22327;51.208;6.418;2023-03-05T07:16:15;8.00;96.10
36292;DHT22;22327;51.208;6.418;2023-03-05T07:18:42;8.10;95.90
36292;DHT22;22327;51.208;6.418;2023-03-05T07:21:08;8.10;95.90
36292;DHT22;22327;51.208;6.418;2023-03-05T07:23:36;8.20;95.70
36292;DHT22;22327;51.208;6.418;2023-03-05T07:26:02;8.20;95.70
36292;DHT22;22327;51.208;6.418;2023-03-05T07:28:29;8.20;95.70
36292;DHT22;22327;51.208;6.418;2023-03-05T07:31:00;8.20;95.60
36292;DHT22;22327;51.208;6.418;2023-03-05T07:33:26;8.30;95.70
36292;DHT22;22327;51.208;6.418;2023-03-05T07:35:52;8.30;95.60
36292;DHT22;22327;51.208;6.418;2023-03-05T07:38:17;8.40;95.70
36292;DHT22;22327;51.208;6.418;2023-03-05T07:40:43;8.40;95.40
36292;DHT22;22327;51.208;6.418;2023-03-05T07:43:08;8.40;95.50
36292;DHT22;22327;51.208;6.418;2023-03-05T07:45:38;8.50;95.40
36292;DHT22;22327;51.208;6.418;2023-03-05T07:48:04;8.50;95.20
36292;DHT22;22327;51.208;6.418;2023-03-05T07:50:29;8.50;95.10
36292;DHT22;22327;51.208;6.418;2023-03-05T07:52:57;8.50;95.20
36292;DHT22;22327;51.208;6.418;2023-03-05T07:55:23;8.50;95.10
36292;DHT22;22327;51.208;6.418;2023-03-05T07:57:48;8.60;95.00
36292;DHT22;22327;51.208;6.418;2023-03-05T08:00:14;8.60;95.00
36292;DHT22;22327;51.208;6.418;2023-03-05T08:02:40;8.50;94.90
36292;DHT22;22327;51.208;6.418;2023-03-05T08:05:05;8.50;94.90
36292;DHT22;22327;51.208;6.418;2023-03-05T08:07:31;8.60;95.10
36292;DHT22;22327;51.208;6.418;2023-03-05T08:09:56;8.60;94.90
36292;DHT22;22327;51.208;6.418;2023-03-05T08:12:22;8.60;94.90
36292;DHT22;22327;51.208;6.418;2023-03-05T08:14:47;8.70;94.80
36292;DHT22;22327;51.208;6.418;2023-03-05T08:17:13;8.80;94.70
36292;DHT22;22327;51.208;6.418;2023-03-05T08:19:39;8.90;94.50
36292;DHT22;22327;51.208;6.418;2023-03-05T08:22:04;9.00;94.50
36292;DHT22;22327;51.208;6.418;2023-03-05T08:24:30;9.10;94.30
36292;DHT22;22327;51.208;6.418;2023-03-05T08:26:56;9.20;94.50
36292;DHT22;22327;51.208;6.418;2023-03-05T08:29:22;9.20;94.40
36292;DHT22;22327;51.208;6.418;2023-03-05T08:31:47;9.30;93.70
36292;DHT22;22327;51.208;6.418;2023-03-05T08:34:13;9.40;93.40
36292;DHT22;22327;51.208;6.418;2023-03-05T08:36:39;9.60;93.50
36292;DHT22;22327;51.208;6.418;2023-03-05T08:39:04;9.70;93.10
36292;DHT22;22327;51.208;6.418;2023-03-05T08:41:32;9.80;93.00
36292;DHT22;22327;51.208;6.418;2023-03-05T08:43:58;9.80;93.20
36292;DHT22;22327;51.208;6.418;2023-03-05T08:46:23;10.00;92.90
36292;DHT22;22327;51.208;6.418;2023-03-05T08:48:49;10.00;93.00
36292;DHT22;22327;51.208;6.418;2023-03-05T08:51:17;9.90;93.40
36292;DHT22;22327;51.208;6.418;2023-03-05T08:53:44;9.90;93.70
36292;DHT22;22327;51.208;6.418;2023-03-05T08:56:10;9.90;93.80
36292;DHT22;22327;51.208;6.418;2023-03-05T08:58:35;9.80;94.00
36292;DHT22;22327;51.208;6.418;2023-03-05T09:01:01;9.70;93.80
36292;DHT22;22327;51.208;6.418;2023-03-05T09:03:27;9.60;94.00
36292;DHT22;22327;51.208;6.418;2023-03-05T09:05:52;9.50;94.40
36292;DHT22;22327;51.208;6.418;2023-03-05T09:08:18;9.40;94.60
36292;DHT22;22327;51.208;6.418;2023-03-05T09:10:45;9.40;94.50
36292;DHT22;22327;51.208;6.418;2023-03-05T09:13:11;9.40;94.70
36292;DHT22;22327;51.208;6.418;2023-03-05T09:15:37;9.40;94.50
36292;DHT22;22327;51.208;6.418;2023-03-05T09:18:03;9.40;94.60
36292;DHT22;22327;51.208;6.418;2023-03-05T09:20:28;9.40;94.70
36292;DHT22;22327;51.208;6.418;2023-03-05T09:22:54;9.30;94.60
36292;DHT22;22327;51.208;6.418;2023-03-05T09:25:20;9.30;94.90
36292;DHT22;22327;51.208;6.418;2023-03-05T09:27:45;9.20;95.00
36292;DHT22;22327;51.208;6.418;2023-03-05T09:30:12;9.20;95.20
36292;DHT22;22327;51.208;6.418;2023-03-05T09:32:38;9.30;95.50
36292;DHT22;22327;51.208;6.418;2023-03-05T09:35:04;9.40;95.40
36292;DHT22;22327;51.208;6.418;2023-03-05T09:37:30;9.40;95.10
36292;DHT22;22327;51.208;6.418;2023-03-05T09:39:56;9.30;94.90
36292;DHT22;22327;51.208;6.418;2023-03-05T09:42:53;9.30;95.00
36292;DHT22;22327;51.208;6.418;2023-03-05T09:48:16;9.30;95.00
36292;DHT22;22327;51.208;6.418;2023-03-05T09:50:54;9.20;94.90
36292;DHT22;22327;51.208;6.418;2023-03-05T09:53:46;9.20;95.20
36292;DHT22;22327;51.208;6.418;2023-03-05T09:56:19;9.20;95.20
36292;DHT22;22327;51.208;6.418;2023-03-05T09:58:49;9.20;95.40
36292;DHT22;22327;51.208;6.418;2023-03-05T10:01:21;9.10;95.50
36292;DHT22;22327;51.208;6.418;2023-03-05T10:04:03;9.10;95.90
36292;DHT22;22327;51.208;6.418;2023-03-05T10:06:34;9.20;96.10
36292;DHT22;22327;51.208;6.418;2023-03-05T10:11:44;9.30;96.40
36292;DHT22;22327;51.208;6.418;2023-03-05T10:14:14;9.40;96.50
36292;DHT22;22327;51.208;6.418;2023-03-05T10:19:40;9.70;96.10
36292;DHT22;22327;51.208;6.418;2023-03-05T10:22:19;9.80;96.30
36292;DHT22;22327;51.208;6.418;2023-03-05T10:28:08;10.10;94.90
36292;DHT22;22327;51.208;6.418;2023-03-05T10:33:38;10.10;93.60
36292;DHT22;22327;51.208;6.418;2023-03-05T10:36:29;10.00;93.70
36292;DHT22;22327;51.208;6.418;2023-03-05T10:44:38;10.20;94.10
36292;DHT22;22327;51.208;6.418;2023-03-05T10:49:54;10.40;93.40
36292;DHT22;22327;51.208;6.418;2023-03-05T10:52:34;10.30;93.10
36292;DHT22;22327;51.208;6.418;2023-03-05T10:55:00;10.20;93.50
36292;DHT22;22327;51.208;6.418;2023-03-05T10:57:30;10.30;93.70
36292;DHT22;22327;51.208;6.418;2023-03-05T11:02:31;10.30;93.40
36292;DHT22;22327;51.208;6.418;2023-03-05T11:04:57;10.20;93.40
36292;DHT22;22327;51.208;6.418;2023-03-05T11:10:03;10.20;93.10
36292;DHT22;22327;51.208;6.418;2023-03-05T11:23:21;10.80;92.20
36292;DHT22;22327;51.208;6.418;2023-03-05T11:26:18;10.90;91.90
36292;DHT22;22327;51.208;6.418;2023-03-05T11:33:58;11.00;91.50
36292;DHT22;22327;51.208;6.418;2023-03-05T11:36:28;10.90;91.30
36292;DHT22;22327;51.208;6.418;2023-03-05T11:38:56;10.70;91.70
36292;DHT22;22327;51.208;6.418;2023-03-05T11:44:10;10.30;92.90
36292;DHT22;22327;51.208;6.418;2023-03-05T11:46:42;10.20;93.20
36292;DHT22;22327;51.208;6.418;2023-03-05T11:49:13;10.40;93.50
36292;DHT22;22327;51.208;6.418;2023-03-05T11:51:44;10.40;93.70
36292;DHT22;22327;51.208;6.418;2023-03-05T11:54:22;10.60;93.80
36292;DHT22;22327;51.208;6.418;2023-03-05T11:56:50;10.80;94.10
36292;DHT22;22327;51.208;6.418;2023-03-05T11:59:19;11.00;93.90
36292;DHT22;22327;51.208;6.418;2023-03-05T12:01:51;11.30;93.90
36292;DHT22;22327;51.208;6.418;2023-03-05T12:04:18;11.50;93.80
36292;DHT22;22327;51.208;6.418;2023-03-05T12:06:56;11.70;93.60
36292;DHT22;22327;51.208;6.418;2023-03-05T12:09:42;12.00;92.90
36292;DHT22;22327;51.208;6.418;2023-03-05T12:21:20;12.60;90.50
36292;DHT22;22327;51.208;6.418;2023-03-05T12:24:01;12.50;90.40
36292;DHT22;22327;51.208;6.418;2023-03-05T12:29:28;12.40;89.90
36292;DHT22;22327;51.208;6.418;2023-03-05T12:31:54;12.30;89.00
36292;DHT22;22327;51.208;6.418;2023-03-05T12:37:12;12.10;88.10
36292;DHT22;22327;51.208;6.418;2023-03-05T12:39:44;12.00;89.20
36292;DHT22;22327;51.208;6.418;2023-03-05T12:45:22;11.70;88.70
36292;DHT22;22327;51.208;6.418;2023-03-05T12:53:15;11.40;90.30
36292;DHT22;22327;51.208;6.418;2023-03-05T12:58:40;11.40;90.10
36292;DHT22;22327;51.208;6.418;2023-03-05T13:03:39;11.30;90.70
36292;DHT22;22327;51.208;6.418;2023-03-05T13:06:23;11.40;90.90
36292;DHT22;22327;51.208;6.418;2023-03-05T13:08:56;11.20;90.70
36292;DHT22;22327;51.208;6.418;2023-03-05T13:11:22;10.90;91.00
36292;DHT22;22327;51.208;6.418;2023-03-05T13:13:49;10.80;91.80
36292;DHT22;22327;51.208;6.418;2023-03-05T13:16:18;10.80;92.40
36292;DHT22;22327;51.208;6.418;2023-03-05T13:18:46;10.90;92.70
36292;DHT22;22327;51.208;6.418;2023-03-05T13:21:15;11.10;92.60
36292;DHT22;22327;51.208;6.418;2023-03-05T13:23:52;11.30;92.60
36292;DHT22;22327;51.208;6.418;2023-03-05T13:26:38;11.60;92.20
36292;DHT22;22327;51.208;6.418;2023-03-05T13:29:16;11.70;92.00
36292;DHT22;22327;51.208;6.418;2023-03-05T13:31:52;11.90;91.60
36292;DHT22;22327;51.208;6.418;2023-03-05T13:34:35;11.90;91.10
36292;DHT22;22327;51.208;6.418;2023-03-05T13:37:13;11.80;91.20
36292;DHT22;22327;51.208;6.418;2023-03-05T13:39:43;11.60;90.50
36292;DHT22;22327;51.208;6.418;2023-03-05T13:42:18;11.40;90.00
36292;DHT22;22327;51.208;6.418;2023-03-05T13:44:59;11.20;90.60
36292;DHT22;22327;51.208;6.418;2023-03-05T13:47:27;11.10;90.90
36292;DHT22;22327;51.208;6.418;2023-03-05T13:49:55;11.00;91.20
36292;DHT22;22327;51.208;6.418;2023-03-05T13:52:32;11.00;91.40
36292;DHT22;22327;51.208;6.418;2023-03-05T13:54:58;11.20;91.40
36292;DHT22;22327;51.208;6.418;2023-03-05T13:59:57;11.20;91.30
36292;DHT22;22327;51.208;6.418;2023-03-05T14:02:24;11.20;91.40
36292;DHT22;22327;51.208;6.418;2023-03-05T14:04:51;11.30;91.40
36292;DHT22;22327;51.208;6.418;2023-03-05T14:09:50;11.20;91.40
36292;DHT22;22327;51.208;6.418;2023-03-05T14:14:51;11.20;91.40
36292;DHT22;22327;51.208;6.418;2023-03-05T14:17:31;11.20;91.30
36292;DHT22;22327;51.208;6.418;2023-03-05T14:20:29;11.20;91.10
36292;DHT22;22327;51.208;6.418;2023-03-05T14:22:57;11.00;90.70
36292;DHT22;22327;51.208;6.418;2023-03-05T14:25:30;11.00;91.50
36292;DHT22;22327;51.208;6.418;2023-03-05T14:28:45;11.00;91.50
36292;DHT22;22327;51.208;6.418;2023-03-05T14:30:47;11.00;91.70
36292;DHT22;22327;51.208;6.418;2023-03-05T14:33:20;11.00;91.80
36292;DHT22;22327;51.208;6.418;2023-03-05T14:35:48;11.00;91.50
36292;DHT22;22327;51.208;6.418;2023-03-05T14:38:21;11.00;91.70
36292;DHT22;22327;51.208;6.418;2023-03-05T14:40:47;11.00;91.50
36292;DHT22;22327;51.208;6.418;2023-03-05T14:43:13;10.90;91.50
36292;DHT22;22327;51.208;6.418;2023-03-05T14:45:40;10.90;91.60
36292;DHT22;22327;51.208;6.418;2023-03-05T14:48:10;11.00;91.90
36292;DHT22;22327;51.208;6.418;2023-03-05T14:50:41;11.10;91.60
36292;DHT22;22327;51.208;6.418;2023-03-05T14:53:12;11.20;91.50
36292;DHT22;22327;51.208;6.418;2023-03-05T14:55:39;11.20;91.60
36292;DHT22;22327;51.208;6.418;2023-03-05T14:58:14;11.30;91.30
36292;DHT22;22327;51.208;6.418;2023-03-05T15:00:41;11.30;91.30
36292;DHT22;22327;51.208;6.418;2023-03-05T15:03:13;11.40;91.00
36292;DHT22;22327;51.208;6.418;2023-03-05T15:05:39;11.30;90.70
36292;DHT22;22327;51.208;6.418;2023-03-05T15:08:05;11.30;91.00
36292;DHT22;22327;51.208;6.418;2023-03-05T15:10:37;11.30;90.80
36292;DHT22;22327;51.208;6.418;2023-03-05T15:13:03;11.20;90.90
36292;DHT22;22327;51.208;6.418;2023-03-05T15:15:28;11.30;91.20
36292;DHT22;22327;51.208;6.418;2023-03-05T15:17:54;11.40;91.00
36292;DHT22;22327;51.208;6.418;2023-03-05T15:20:27;11.40;91.00
36292;DHT22;22327;51.208;6.418;2023-03-05T15:22:53;11.50;90.90
36292;DHT22;22327;51.208;6.418;2023-03-05T15:25:20;11.50;90.70
36292;DHT22;22327;51.208;6.418;2023-03-05T15:27:46;11.50;90.60
36292;DHT22;22327;51.208;6.418;2023-03-05T15:30:21;11.50;90.80
36292;DHT22;22327;51.208;6.418;2023-03-05T15:32:47;11.50;90.50
36292;DHT22;22327;51.208;6.418;2023-03-05T15:35:13;11.40;90.40
36292;DHT22;22327;51.208;6.418;2023-03-05T15:37:38;11.40;90.30
36292;DHT22;22327;51.208;6.418;2023-03-05T15:40:04;11.40;90.40
36292;DHT22;22327;51.208;6.418;2023-03-05T15:42:30;11.40;90.40
36292;DHT22;22327;51.208;6.418;2023-03-05T15:44:55;11.40;88.90
36292;DHT22;22327;51.208;6.418;2023-03-05T15:47:21;11.20;88.50
36292;DHT22;22327;51.208;6.418;2023-03-05T15:49:46;11.10;88.50
36292;DHT22;22327;51.208;6.418;2023-03-05T15:52:12;10.90;88.10
36292;DHT22;22327;51.208;6.418;2023-03-05T15:54:39;10.90;89.00
36292;DHT22;22327;51.208;6.418;2023-03-05T15:57:07;10.80;89.10
36292;DHT22;22327;51.208;6.418;2023-03-05T15:59:33;10.90;88.70
36292;DHT22;22327;51.208;6.418;2023-03-05T16:01:59;10.80;88.90
36292;DHT22;22327;51.208;6.418;2023-03-05T16:04:25;10.70;88.50
36292;DHT22;22327;51.208;6.418;2023-03-05T16:06:52;10.70;89.10
36292;DHT22;22327;51.208;6.418;2023-03-05T16:09:19;10.60;89.30
36292;DHT22;22327;51.208;6.418;2023-03-05T16:11:45;10.60;88.20
36292;DHT22;22327;51.208;6.418;2023-03-05T16:14:13;10.50;88.20
36292;DHT22;22327;51.208;6.418;2023-03-05T16:16:39;10.40;88.30
36292;DHT22;22327;51.208;6.418;2023-03-05T16:19:06;10.40;88.80
36292;DHT22;22327;51.208;6.418;2023-03-05T16:21:33;10.30;89.20
36292;DHT22;22327;51.208;6.418;2023-03-05T16:23:59;10.30;90.00
36292;DHT22;22327;51.208;6.418;2023-03-05T16:26:25;10.30;90.30
36292;DHT22;22327;51.208;6.418;2023-03-05T16:28:50;10.30;90.20
36292;DHT22;22327;51.208;6.418;2023-03-05T16:31:16;10.40;90.20
36292;DHT22;22327;51.208;6.418;2023-03-05T16:33:41;10.40;90.10
36292;DHT22;22327;51.208;6.418;2023-03-05T16:36:20;10.40;90.30
36292;DHT22;22327;51.208;6.418;2023-03-05T16:38:48;10.30;90.50
36292;DHT22;22327;51.208;6.418;2023-03-05T16:41:15;10.20;90.60
36292;DHT22;22327;51.208;6.418;2023-03-05T16:43:41;10.10;90.90
36292;DHT22;22327;51.208;6.418;2023-03-05T16:46:08;10.00;91.20
36292;DHT22;22327;51.208;6.418;2023-03-05T16:48:34;9.90;91.40
36292;DHT22;22327;51.208;6.418;2023-03-05T16:51:00;9.80;91.60
36292;DHT22;22327;51.208;6.418;2023-03-05T16:53:25;9.70;91.70
36292;DHT22;22327;51.208;6.418;2023-03-05T16:55:51;9.60;91.90
36292;DHT22;22327;51.208;6.418;2023-03-05T16:58:16;9.70;91.90
36292;DHT22;22327;51.208;6.418;2023-03-05T17:00:42;9.60;91.90
36292;DHT22;22327;51.208;6.418;2023-03-05T17:03:08;9.60;91.90
36292;DHT22;22327;51.208;6.418;2023-03-05T17:05:37;9.50;91.90
36292;DHT22;22327;51.208;6.418;2023-03-05T17:08:02;9.40;92.10
36292;DHT22;22327;51.208;6.418;2023-03-05T17:10:32;9.50;92.30